Terminal Aerodrome Forecast
Issued by NWS

Home | Current Version | Previous Version | Text Only | Print | Product List | Glossary On
Versions: 1 2 3 4 5 6 7 8 9 10 11 12 13 14 15 16 17
000
FTPA31 PHFO 222346
TAFHKO
TAF
PHKO 222346Z 2300/2324 21010KT P6SM FEW060
     FM230300 VRB06KT P6SM VCTS FEW035CB SCT060
     FM230900 06006KT P6SM FEW035
     FM232100 28012KT P6SM FEW060=

USA.gov is the U.S. government's official web portal to all federal, state and local government web resources and services.